Overseas Mindoro — V7RE6 — position and weather

sailwx.info

Track history (hours):
 
Tides and Currents Weather Stations Pressure Air Temp Water Temp Dewpoint Dewpoint Depression Visibility Wind Speed Wind Dir Waves Ship Positions

Overseas Mindoro

Last reported at 2014-Jul-31 10:33 UTC. Time now 2014-Jul-31 11:35 UTC.
Position N 37°44' W 122°20'.

Length 238 m; draft 8.2 m.

Type: Tanker. MMSI: 538003473.

Date/timePositionNaut miles runAvg speedWind from/ knotsBaromVisibWave heightAir tempDewpointWater temp
2014-Jul-31 10:33N 37°44' W 122°20'0 0.1
2014-Jul-31 09:33N 37°44' W 122°20'0 0.0
2014-Jul-31 08:33N 37°44' W 122°20'0 0.0
2014-Jul-31 07:33N 37°44' W 122°20'0 0.0
2014-Jul-31 06:33N 37°44' W 122°20'0 0.0
2014-Jul-31 05:33N 37°44' W 122°20'0 0.1
2014-Jul-31 04:33N 37°44' W 122°20'0 0.1
2014-Jul-31 03:33N 37°44' W 122°20'0 0.0
2014-Jul-31 02:33N 37°44' W 122°20'0 0.0
2014-Jul-31 01:33N 37°44' W 122°20'0 0.1
2014-Jul-31 00:33N 37°44' W 122°20'0 0.1
2014-Jul-30 23:33N 37°44' W 122°20'0 0.1
2014-Jul-30 22:33N 37°44' W 122°20'0 0.1
2014-Jul-30 21:33N 37°44' W 122°20'0 0.0
2014-Jul-30 20:33N 37°44' W 122°20'0 0.0
2014-Jul-30 19:30N 37°44' W 122°20'0 0.0
2014-Jul-30 18:33N 37°44' W 122°20'0 0.0
2014-Jul-30 17:33N 37°44' W 122°20'0 0.1
2014-Jul-30 16:33N 37°44' W 122°20'0 0.2
2014-Jul-30 15:33N 37°44' W 122°20'0 0.0
2014-Jul-30 14:33N 37°44' W 122°20'0 0.0
2014-Jul-30 13:33N 37°44' W 122°20'0 0.0
2014-Jul-30 12:33N 37°44' W 122°20'0 0.0
2014-Jul-30 11:33N 37°44' W 122°20'0 0.1
2014-Jul-30 10:33N 37°44' W 122°20'0 0.1
2014-Jul-30 09:33N 37°44' W 122°20'0 0.1
2014-Jul-30 08:33N 37°44' W 122°20'0 0.0
2014-Jul-30 07:33N 37°44' W 122°20'0 0.0
2014-Jul-30 06:33N 37°44' W 122°20'0 0.0
2014-Jul-30 05:33N 37°44' W 122°20'0 0.1
2014-Jul-30 04:33N 37°44' W 122°20'0 0.1
2014-Jul-30 03:33N 37°44' W 122°20'0 0.1
2014-Jul-30 02:33N 37°44' W 122°20'0 0.0
2014-Jul-30 01:33N 37°44' W 122°20'0 0.0
2014-Jul-30 00:33N 37°44' W 122°20'0 0.1
2014-Jul-29 23:33N 37°44' W 122°20'0 0.1
2014-Jul-29 22:33N 37°44' W 122°20'0 0.0
2014-Jul-29 21:33N 37°44' W 122°20'0 0.1
2014-Jul-29 20:33N 37°44' W 122°20'0 0.0
2014-Jul-29 19:33N 37°44' W 122°20'0 0.0
2014-Jul-29 18:33N 37°44' W 122°20'0 0.0
2014-Jul-29 17:33N 37°44' W 122°20'0 0.2
2014-Jul-29 16:33N 37°44' W 122°20'0 0.1
2014-Jul-29 15:33N 37°44' W 122°20'0 0.0
2014-Jul-29 14:33N 37°44' W 122°20'0 0.0
2014-Jul-29 13:33N 37°44' W 122°20'0 0.0
2014-Jul-29 12:33N 37°44' W 122°20'0 0.0
2014-Jul-29 11:33N 37°44' W 122°20'0 0.0
2014-Jul-29 10:33N 37°44' W 122°20'0 0.2
2014-Jul-29 09:33N 37°44' W 122°20'0 0.1
2014-Jul-29 08:33N 37°44' W 122°20'0 0.1
2014-Jul-29 07:33N 37°44' W 122°20'0 0.0
2014-Jul-29 06:33N 37°44' W 122°20'0 0.0
2014-Jul-29 05:33N 37°44' W 122°20'0 0.0
2014-Jul-29 04:33N 37°44' W 122°20'0 0.0
2014-Jul-29 03:33N 37°44' W 122°20'0 0.2
2014-Jul-29 02:33N 37°44' W 122°20'0 0.0
2014-Jul-29 01:33N 37°44' W 122°20'0 0.0
2014-Jul-29 00:33N 37°44' W 122°20'0 0.1
2014-Jul-28 23:33N 37°44' W 122°20'8 8.1
2014-Jul-28 22:34N 37°51' W 122°24'9 9.1
2014-Jul-28 21:33N 38°00' W 122°25'14 0.3
2014-Jul-26 19:16N 38°03' W 122°08'5 6.0
2014-Jul-26 18:32N 38°04' W 122°13'1313.0
2014-Jul-26 17:33N 37°57' W 122°27'1110.6
2014-Jul-26 16:34N 37°47' W 122°33'10 9.5
2014-Jul-26 15:33N 37°40' W 122°40'1212.0
2014-Jul-26 14:33N 37°28' W 122°40'1111.5
2014-Jul-26 13:33N 37°16' W 122°41'4 3.7
2014-Jul-26 12:33N 37°14' W 122°44'3 2.5
2014-Jul-26 11:33N 37°16' W 122°45'1 1.1
2014-Jul-26 10:33N 37°16' W 122°46'1 1.2
2014-Jul-26 09:33N 37°16' W 122°48'1 1.3
2014-Jul-26 08:33N 37°15' W 122°50'1 1.1
2014-Jul-26 07:33N 37°15' W 122°51'1 1.1
2014-Jul-26 06:33N 37°15' W 122°52'1 1.0
2014-Jul-26 05:33N 37°15' W 122°54'7 6.5
2014-Jul-26 04:33N 37°14' W 122°45'4 4.5
2014-Jul-26 03:33N 37°13' W 122°40'1 1.2
2014-Jul-26 02:33N 37°13' W 122°41'1 1.3
2014-Jul-26 01:33N 37°13' W 122°43'1 1.5
2014-Jul-26 00:33N 37°13' W 122°45'2 1.6
2014-Jul-25 23:33N 37°14' W 122°47'2 1.5
2014-Jul-25 22:33N 37°14' W 122°49'6 6.1
2014-Jul-25 21:33N 37°08' W 122°47'1010.3
2014-Jul-25 20:33N 36°58' W 122°43'1212.2
2014-Jul-25 19:33N 36°46' W 122°44'1212.5
2014-Jul-25 18:33N 36°34' W 122°45'1111.0
2014-Jul-25 17:33N 36°23' W 122°47'8 7.6
2014-Jul-25 16:33N 36°15' W 122°48'8 7.6
2014-Jul-25 15:33N 36°07' W 122°48'1212.3
2014-Jul-25 14:33N 35°55' W 122°50'1313.1
2014-Jul-25 13:33N 35°42' W 122°51'1313.3
2014-Jul-25 12:34N 35°29' W 122°53'1413.5
2014-Jul-25 11:33N 35°16' W 122°55'1312.9
2014-Jul-25 10:33N 35°03' W 122°56'1312.8
2014-Jul-25 09:33N 34°50' W 122°58'1313.2
2014-Jul-25 08:33N 34°37' W 122°59'1313.2
2014-Jul-25 07:33N 34°24' W 123°01'1313.0
2014-Jul-25 06:33N 34°11' W 123°03'1313.2
2014-Jul-25 05:33N 33°58' W 123°04'1313.1
2014-Jul-25 04:33N 33°45' W 123°05'1312.9
2014-Jul-25 03:33N 33°32' W 123°07'1312.9
2014-Jul-25 02:33N 33°19' W 123°09'1312.8
2014-Jul-25 01:33N 33°06' W 123°10'1110.6
2014-Jul-25 00:32N 32°57' W 123°03'1313.6
2014-Jul-24 23:33N 32°53' W 122°48'1313.5
2014-Jul-24 22:33N 32°48' W 122°33'1413.7
2014-Jul-24 21:33N 32°43' W 122°17'1413.7
2014-Jul-24 20:33N 32°38' W 122°02'1413.8
2014-Jul-24 19:34N 32°33' W 121°47'1413.9
2014-Jul-24 18:34N 32°29' W 121°32'1413.8
2014-Jul-24 17:34N 32°24' W 121°16'1913.9
2014-Jul-24 16:13N 32°17' W 120°56'913.5
2014-Jul-24 15:33N 32°14' W 120°46'7014.0
2014-Jul-24 10:34N 32°14' W 119°23'1514.8
2014-Jul-24 09:34N 32°15' W 119°06'1514.6
2014-Jul-24 08:34N 32°16' W 118°48'1515.0
2014-Jul-24 07:33N 32°17' W 118°30'1515.0
2014-Jul-24 06:34N 32°17' W 118°13'1514.9
2014-Jul-24 05:34N 32°18' W 117°55'1514.6
2014-Jul-24 04:34N 32°19' W 117°38'1514.7
2014-Jul-24 03:34N 32°18' W 117°21'7 7.3
2014-Jul-24 02:33N 32°18' W 117°12'0 0.1
2014-Jul-24 01:33N 32°18' W 117°12'0 0.3
2014-Jul-24 00:33N 32°18' W 117°12'9 8.6
2014-Jul-23 23:33N 32°24' W 117°21'1515.0
2014-Jul-23 22:34N 32°32' W 117°36'1413.6
2014-Jul-23 21:34N 32°40' W 117°48'1312.8
2014-Jul-23 20:34N 32°53' W 117°51'1212.3
2014-Jul-23 19:34N 33°05' W 117°56'1313.4
2014-Jul-23 18:34N 33°16' W 118°04'1413.7
2014-Jul-23 17:33N 33°29' W 118°10'1211.6
2014-Jul-23 16:33N 33°40' W 118°14'6 4.8
2014-Jul-23 15:19N 33°45' W 118°16'0 0.0
2014-Jul-23 13:31N 33°45' W 118°16'0 0.0
2014-Jul-23 09:13N 33°45' W 118°16'0 0.0
2014-Jul-23 07:07N 33°45' W 118°16'0 0.0
2014-Jul-23 06:31N 33°45' W 118°16'0 0.0
2014-Jul-23 04:10N 33°45' W 118°16'0 0.0
2014-Jul-23 03:31N 33°45' W 118°16'0 0.0
2014-Jul-23 02:28N 33°45' W 118°16'0 0.0
2014-Jul-23 00:25N 33°45' W 118°16'0 0.0
2014-Jul-22 21:25N 33°45' W 118°16'0 0.0
2014-Jul-22 20:19N 33°45' W 118°16'  
Track history (hours):
 
Tides and Currents Weather Stations Pressure Air Temp Water Temp Dewpoint Dewpoint Depression Visibility Wind Speed Wind Dir Waves Ship Positions

Overseas Mindoro

Last reported at 2014-Jul-31 10:33 UTC. Time now 2014-Jul-31 11:35 UTC.
Position N 37°44' W 122°20'.

Length 238 m; draft 8.2 m.

Type: Tanker. MMSI: 538003473.

Date/timePositionNaut miles runAvg speedWind from/ knotsBaromVisibWave heightAir tempDewpointWater temp
2014-Jul-31 10:33N 37°44' W 122°20'0 0.1
2014-Jul-31 09:33N 37°44' W 122°20'0 0.0
2014-Jul-31 08:33N 37°44' W 122°20'0 0.0
2014-Jul-31 07:33N 37°44' W 122°20'0 0.0
2014-Jul-31 06:33N 37°44' W 122°20'0 0.0
2014-Jul-31 05:33N 37°44' W 122°20'0 0.1
2014-Jul-31 04:33N 37°44' W 122°20'0 0.1
2014-Jul-31 03:33N 37°44' W 122°20'0 0.0
2014-Jul-31 02:33N 37°44' W 122°20'0 0.0
2014-Jul-31 01:33N 37°44' W 122°20'0 0.1
2014-Jul-31 00:33N 37°44' W 122°20'0 0.1
2014-Jul-30 23:33N 37°44' W 122°20'0 0.1
2014-Jul-30 22:33N 37°44' W 122°20'0 0.1
2014-Jul-30 21:33N 37°44' W 122°20'0 0.0
2014-Jul-30 20:33N 37°44' W 122°20'0 0.0
2014-Jul-30 19:30N 37°44' W 122°20'0 0.0
2014-Jul-30 18:33N 37°44' W 122°20'0 0.0
2014-Jul-30 17:33N 37°44' W 122°20'0 0.1
2014-Jul-30 16:33N 37°44' W 122°20'0 0.2
2014-Jul-30 15:33N 37°44' W 122°20'0 0.0
2014-Jul-30 14:33N 37°44' W 122°20'0 0.0
2014-Jul-30 13:33N 37°44' W 122°20'0 0.0
2014-Jul-30 12:33N 37°44' W 122°20'0 0.0
2014-Jul-30 11:33N 37°44' W 122°20'0 0.1
2014-Jul-30 10:33N 37°44' W 122°20'0 0.1
2014-Jul-30 09:33N 37°44' W 122°20'0 0.1
2014-Jul-30 08:33N 37°44' W 122°20'0 0.0
2014-Jul-30 07:33N 37°44' W 122°20'0 0.0
2014-Jul-30 06:33N 37°44' W 122°20'0 0.0
2014-Jul-30 05:33N 37°44' W 122°20'0 0.1
2014-Jul-30 04:33N 37°44' W 122°20'0 0.1
2014-Jul-30 03:33N 37°44' W 122°20'0 0.1
2014-Jul-30 02:33N 37°44' W 122°20'0 0.0
2014-Jul-30 01:33N 37°44' W 122°20'0 0.0
2014-Jul-30 00:33N 37°44' W 122°20'0 0.1
2014-Jul-29 23:33N 37°44' W 122°20'0 0.1
2014-Jul-29 22:33N 37°44' W 122°20'0 0.0
2014-Jul-29 21:33N 37°44' W 122°20'0 0.1
2014-Jul-29 20:33N 37°44' W 122°20'0 0.0
2014-Jul-29 19:33N 37°44' W 122°20'0 0.0
2014-Jul-29 18:33N 37°44' W 122°20'0 0.0
2014-Jul-29 17:33N 37°44' W 122°20'0 0.2
2014-Jul-29 16:33N 37°44' W 122°20'0 0.1
2014-Jul-29 15:33N 37°44' W 122°20'0 0.0
2014-Jul-29 14:33N 37°44' W 122°20'0 0.0
2014-Jul-29 13:33N 37°44' W 122°20'0 0.0
2014-Jul-29 12:33N 37°44' W 122°20'0 0.0
2014-Jul-29 11:33N 37°44' W 122°20'0 0.0
2014-Jul-29 10:33N 37°44' W 122°20'0 0.2
2014-Jul-29 09:33N 37°44' W 122°20'0 0.1
2014-Jul-29 08:33N 37°44' W 122°20'0 0.1
2014-Jul-29 07:33N 37°44' W 122°20'0 0.0
2014-Jul-29 06:33N 37°44' W 122°20'0 0.0
2014-Jul-29 05:33N 37°44' W 122°20'0 0.0
2014-Jul-29 04:33N 37°44' W 122°20'0 0.0
2014-Jul-29 03:33N 37°44' W 122°20'0 0.2
2014-Jul-29 02:33N 37°44' W 122°20'0 0.0
2014-Jul-29 01:33N 37°44' W 122°20'0 0.0
2014-Jul-29 00:33N 37°44' W 122°20'0 0.1
2014-Jul-28 23:33N 37°44' W 122°20'8 8.1
2014-Jul-28 22:34N 37°51' W 122°24'9 9.1
2014-Jul-28 21:33N 38°00' W 122°25'14 0.3
2014-Jul-26 19:16N 38°03' W 122°08'5 6.0
2014-Jul-26 18:32N 38°04' W 122°13'1313.0
2014-Jul-26 17:33N 37°57' W 122°27'1110.6
2014-Jul-26 16:34N 37°47' W 122°33'10 9.5
2014-Jul-26 15:33N 37°40' W 122°40'1212.0
2014-Jul-26 14:33N 37°28' W 122°40'1111.5
2014-Jul-26 13:33N 37°16' W 122°41'4 3.7
2014-Jul-26 12:33N 37°14' W 122°44'3 2.5
2014-Jul-26 11:33N 37°16' W 122°45'1 1.1
2014-Jul-26 10:33N 37°16' W 122°46'1 1.2
2014-Jul-26 09:33N 37°16' W 122°48'1 1.3
2014-Jul-26 08:33N 37°15' W 122°50'1 1.1
2014-Jul-26 07:33N 37°15' W 122°51'1 1.1
2014-Jul-26 06:33N 37°15' W 122°52'1 1.0
2014-Jul-26 05:33N 37°15' W 122°54'7 6.5
2014-Jul-26 04:33N 37°14' W 122°45'4 4.5
2014-Jul-26 03:33N 37°13' W 122°40'1 1.2
2014-Jul-26 02:33N 37°13' W 122°41'1 1.3
2014-Jul-26 01:33N 37°13' W 122°43'1 1.5
2014-Jul-26 00:33N 37°13' W 122°45'2 1.6
2014-Jul-25 23:33N 37°14' W 122°47'2 1.5
2014-Jul-25 22:33N 37°14' W 122°49'6 6.1
2014-Jul-25 21:33N 37°08' W 122°47'1010.3
2014-Jul-25 20:33N 36°58' W 122°43'1212.2
2014-Jul-25 19:33N 36°46' W 122°44'1212.5
2014-Jul-25 18:33N 36°34' W 122°45'1111.0
2014-Jul-25 17:33N 36°23' W 122°47'8 7.6
2014-Jul-25 16:33N 36°15' W 122°48'8 7.6
2014-Jul-25 15:33N 36°07' W 122°48'1212.3
2014-Jul-25 14:33N 35°55' W 122°50'1313.1
2014-Jul-25 13:33N 35°42' W 122°51'1313.3
2014-Jul-25 12:34N 35°29' W 122°53'1413.5
2014-Jul-25 11:33N 35°16' W 122°55'1312.9
2014-Jul-25 10:33N 35°03' W 122°56'1312.8
2014-Jul-25 09:33N 34°50' W 122°58'1313.2
2014-Jul-25 08:33N 34°37' W 122°59'1313.2
2014-Jul-25 07:33N 34°24' W 123°01'1313.0
2014-Jul-25 06:33N 34°11' W 123°03'1313.2
2014-Jul-25 05:33N 33°58' W 123°04'1313.1
2014-Jul-25 04:33N 33°45' W 123°05'1312.9
2014-Jul-25 03:33N 33°32' W 123°07'1312.9
2014-Jul-25 02:33N 33°19' W 123°09'1312.8
2014-Jul-25 01:33N 33°06' W 123°10'1110.6
2014-Jul-25 00:32N 32°57' W 123°03'1313.6
2014-Jul-24 23:33N 32°53' W 122°48'1313.5
2014-Jul-24 22:33N 32°48' W 122°33'1413.7
2014-Jul-24 21:33N 32°43' W 122°17'1413.7
2014-Jul-24 20:33N 32°38' W 122°02'1413.8
2014-Jul-24 19:34N 32°33' W 121°47'1413.9
2014-Jul-24 18:34N 32°29' W 121°32'1413.8
2014-Jul-24 17:34N 32°24' W 121°16'1913.9
2014-Jul-24 16:13N 32°17' W 120°56'913.5
2014-Jul-24 15:33N 32°14' W 120°46'7014.0
2014-Jul-24 10:34N 32°14' W 119°23'1514.8
2014-Jul-24 09:34N 32°15' W 119°06'1514.6
2014-Jul-24 08:34N 32°16' W 118°48'1515.0
2014-Jul-24 07:33N 32°17' W 118°30'1515.0
2014-Jul-24 06:34N 32°17' W 118°13'1514.9
2014-Jul-24 05:34N 32°18' W 117°55'1514.6
2014-Jul-24 04:34N 32°19' W 117°38'1514.7
2014-Jul-24 03:34N 32°18' W 117°21'7 7.3
2014-Jul-24 02:33N 32°18' W 117°12'0 0.1
2014-Jul-24 01:33N 32°18' W 117°12'0 0.3
2014-Jul-24 00:33N 32°18' W 117°12'9 8.6
2014-Jul-23 23:33N 32°24' W 117°21'1515.0
2014-Jul-23 22:34N 32°32' W 117°36'1413.6
2014-Jul-23 21:34N 32°40' W 117°48'1312.8
2014-Jul-23 20:34N 32°53' W 117°51'1212.3
2014-Jul-23 19:34N 33°05' W 117°56'1313.4
2014-Jul-23 18:34N 33°16' W 118°04'1413.7
2014-Jul-23 17:33N 33°29' W 118°10'1211.6
2014-Jul-23 16:33N 33°40' W 118°14'6 4.8
2014-Jul-23 15:19N 33°45' W 118°16'0 0.0
2014-Jul-23 13:31N 33°45' W 118°16'0 0.0
2014-Jul-23 09:13N 33°45' W 118°16'0 0.0
2014-Jul-23 07:07N 33°45' W 118°16'0 0.0
2014-Jul-23 06:31N 33°45' W 118°16'0 0.0
2014-Jul-23 04:10N 33°45' W 118°16'0 0.0
2014-Jul-23 03:31N 33°45' W 118°16'0 0.0
2014-Jul-23 02:28N 33°45' W 118°16'0 0.0
2014-Jul-23 00:25N 33°45' W 118°16'0 0.0
2014-Jul-22 21:25N 33°45' W 118°16'0 0.0
2014-Jul-22 20:19N 33°45' W 118°16'  

Dump ship's entire track history